sensor_id;sensor_type;location;lat;lon;timestamp;temperature;humidity
39095;DHT22;24840;47.508;19.376;2023-04-03T00:01:10;8.00;99.90
39095;DHT22;24840;47.508;19.376;2023-04-03T00:03:36;8.00;99.90
39095;DHT22;24840;47.508;19.376;2023-04-03T00:06:03;8.00;99.90
39095;DHT22;24840;47.508;19.376;2023-04-03T00:08:29;8.00;99.90
39095;DHT22;24840;47.508;19.376;2023-04-03T00:10:56;7.90;99.90
39095;DHT22;24840;47.508;19.376;2023-04-03T00:13:23;7.90;99.90
39095;DHT22;24840;47.508;19.376;2023-04-03T00:15:48;7.90;99.90
39095;DHT22;24840;47.508;19.376;2023-04-03T00:18:14;7.80;99.90
39095;DHT22;24840;47.508;19.376;2023-04-03T00:20:41;7.70;99.90
39095;DHT22;24840;47.508;19.376;2023-04-03T00:23:06;7.70;99.90
39095;DHT22;24840;47.508;19.376;2023-04-03T00:25:32;7.80;99.90
39095;DHT22;24840;47.508;19.376;2023-04-03T00:27:58;7.70;99.90
39095;DHT22;24840;47.508;19.376;2023-04-03T00:30:24;7.60;99.90
39095;DHT22;24840;47.508;19.376;2023-04-03T00:32:50;7.50;99.90
39095;DHT22;24840;47.508;19.376;2023-04-03T00:35:18;7.50;99.90
39095;DHT22;24840;47.508;19.376;2023-04-03T00:37:45;7.50;99.90
39095;DHT22;24840;47.508;19.376;2023-04-03T00:40:13;7.50;99.90
39095;DHT22;24840;47.508;19.376;2023-04-03T00:42:40;7.50;99.90
39095;DHT22;24840;47.508;19.376;2023-04-03T00:47:50;7.60;99.90
39095;DHT22;24840;47.508;19.376;2023-04-03T00:50:17;7.60;99.90
39095;DHT22;24840;47.508;19.376;2023-04-03T00:52:43;7.50;99.90
39095;DHT22;24840;47.508;19.376;2023-04-03T00:55:12;7.60;99.90
39095;DHT22;24840;47.508;19.376;2023-04-03T00:57:40;7.60;99.90
39095;DHT22;24840;47.508;19.376;2023-04-03T01:00:10;7.50;99.90
39095;DHT22;24840;47.508;19.376;2023-04-03T01:02:38;7.50;99.90
39095;DHT22;24840;47.508;19.376;2023-04-03T01:05:07;7.50;99.90
39095;DHT22;24840;47.508;19.376;2023-04-03T01:07:33;7.50;99.90
39095;DHT22;24840;47.508;19.376;2023-04-03T01:10:04;7.50;99.90
39095;DHT22;24840;47.508;19.376;2023-04-03T01:12:33;7.50;99.90
39095;DHT22;24840;47.508;19.376;2023-04-03T01:17:40;7.20;99.90
39095;DHT22;24840;47.508;19.376;2023-04-03T01:28:04;7.10;99.90
39095;DHT22;24840;47.508;19.376;2023-04-03T01:30:36;7.10;99.90
39095;DHT22;24840;47.508;19.376;2023-04-03T01:33:05;7.10;99.90
39095;DHT22;24840;47.508;19.376;2023-04-03T01:35:30;7.10;99.90
39095;DHT22;24840;47.508;19.376;2023-04-03T01:37:56;7.00;99.90
39095;DHT22;24840;47.508;19.376;2023-04-03T01:40:22;6.90;99.90
39095;DHT22;24840;47.508;19.376;2023-04-03T01:42:47;6.80;99.90
39095;DHT22;24840;47.508;19.376;2023-04-03T01:45:13;6.80;99.90
39095;DHT22;24840;47.508;19.376;2023-04-03T01:47:39;6.80;99.90
39095;DHT22;24840;47.508;19.376;2023-04-03T01:50:05;6.90;99.90
39095;DHT22;24840;47.508;19.376;2023-04-03T01:52:31;6.70;99.90
39095;DHT22;24840;47.508;19.376;2023-04-03T01:54:57;6.70;99.90
39095;DHT22;24840;47.508;19.376;2023-04-03T01:57:22;6.70;99.90
39095;DHT22;24840;47.508;19.376;2023-04-03T01:59:48;6.70;99.90
39095;DHT22;24840;47.508;19.376;2023-04-03T02:02:14;6.50;99.90
39095;DHT22;24840;47.508;19.376;2023-04-03T02:04:40;6.50;99.90
39095;DHT22;24840;47.508;19.376;2023-04-03T02:07:06;6.50;99.90
39095;DHT22;24840;47.508;19.376;2023-04-03T02:09:32;6.50;99.90
39095;DHT22;24840;47.508;19.376;2023-04-03T02:11:58;6.50;99.90
39095;DHT22;24840;47.508;19.376;2023-04-03T02:14:23;6.40;99.90
39095;DHT22;24840;47.508;19.376;2023-04-03T02:16:50;6.40;99.90
39095;DHT22;24840;47.508;19.376;2023-04-03T02:19:16;6.30;99.90
39095;DHT22;24840;47.508;19.376;2023-04-03T02:21:41;6.50;99.90
39095;DHT22;24840;47.508;19.376;2023-04-03T02:24:07;6.30;99.90
39095;DHT22;24840;47.508;19.376;2023-04-03T02:26:33;6.30;99.90
39095;DHT22;24840;47.508;19.376;2023-04-03T02:28:59;6.30;99.90
39095;DHT22;24840;47.508;19.376;2023-04-03T02:31:24;6.30;99.90
39095;DHT22;24840;47.508;19.376;2023-04-03T02:33:50;6.30;99.90
39095;DHT22;24840;47.508;19.376;2023-04-03T02:36:17;6.40;99.90
39095;DHT22;24840;47.508;19.376;2023-04-03T02:38:42;6.30;99.90
39095;DHT22;24840;47.508;19.376;2023-04-03T02:41:10;6.30;99.90
39095;DHT22;24840;47.508;19.376;2023-04-03T02:43:38;6.40;99.90
39095;DHT22;24840;47.508;19.376;2023-04-03T02:46:04;6.40;99.90
39095;DHT22;24840;47.508;19.376;2023-04-03T02:48:31;6.40;99.90
39095;DHT22;24840;47.508;19.376;2023-04-03T02:50:57;6.40;99.90
39095;DHT22;24840;47.508;19.376;2023-04-03T02:53:23;6.40;99.90
39095;DHT22;24840;47.508;19.376;2023-04-03T02:55:49;6.30;99.90
39095;DHT22;24840;47.508;19.376;2023-04-03T02:58:15;6.40;99.90
39095;DHT22;24840;47.508;19.376;2023-04-03T03:00:41;6.40;99.90
39095;DHT22;24840;47.508;19.376;2023-04-03T03:03:07;6.40;99.90
39095;DHT22;24840;47.508;19.376;2023-04-03T03:05:33;6.30;99.90
39095;DHT22;24840;47.508;19.376;2023-04-03T03:07:59;6.30;99.90
39095;DHT22;24840;47.508;19.376;2023-04-03T03:10:25;6.40;99.90
39095;DHT22;24840;47.508;19.376;2023-04-03T03:12:50;6.40;99.90
39095;DHT22;24840;47.508;19.376;2023-04-03T03:15:16;6.40;99.90
39095;DHT22;24840;47.508;19.376;2023-04-03T03:17:43;6.20;99.90
39095;DHT22;24840;47.508;19.376;2023-04-03T03:20:09;6.20;99.90
39095;DHT22;24840;47.508;19.376;2023-04-03T03:22:35;6.10;99.90
39095;DHT22;24840;47.508;19.376;2023-04-03T03:25:02;6.30;99.90
39095;DHT22;24840;47.508;19.376;2023-04-03T03:27:27;6.30;99.90
39095;DHT22;24840;47.508;19.376;2023-04-03T03:29:53;6.40;99.90
39095;DHT22;24840;47.508;19.376;2023-04-03T03:32:19;6.30;99.90
39095;DHT22;24840;47.508;19.376;2023-04-03T03:34:44;6.30;99.90
39095;DHT22;24840;47.508;19.376;2023-04-03T03:37:10;6.30;99.90
39095;DHT22;24840;47.508;19.376;2023-04-03T03:39:36;6.20;99.90
39095;DHT22;24840;47.508;19.376;2023-04-03T03:42:02;6.10;99.90
39095;DHT22;24840;47.508;19.376;2023-04-03T03:44:27;6.20;99.90
39095;DHT22;24840;47.508;19.376;2023-04-03T03:46:54;6.20;99.90
39095;DHT22;24840;47.508;19.376;2023-04-03T03:49:20;6.10;99.90
39095;DHT22;24840;47.508;19.376;2023-04-03T03:51:46;6.10;99.90
39095;DHT22;24840;47.508;19.376;2023-04-03T03:54:12;6.10;99.90
39095;DHT22;24840;47.508;19.376;2023-04-03T03:56:38;6.10;99.90
39095;DHT22;24840;47.508;19.376;2023-04-03T03:59:04;6.10;99.90
39095;DHT22;24840;47.508;19.376;2023-04-03T04:01:30;5.90;99.90
39095;DHT22;24840;47.508;19.376;2023-04-03T04:03:56;6.00;99.90
39095;DHT22;24840;47.508;19.376;2023-04-03T04:06:22;5.90;99.90
39095;DHT22;24840;47.508;19.376;2023-04-03T04:08:48;5.80;99.90
39095;DHT22;24840;47.508;19.376;2023-04-03T04:11:14;5.90;99.90
39095;DHT22;24840;47.508;19.376;2023-04-03T04:13:39;5.90;99.90
39095;DHT22;24840;47.508;19.376;2023-04-03T04:16:06;5.90;99.90
39095;DHT22;24840;47.508;19.376;2023-04-03T04:18:33;5.80;99.90
39095;DHT22;24840;47.508;19.376;2023-04-03T04:20:59;5.70;99.90
39095;DHT22;24840;47.508;19.376;2023-04-03T04:23:25;5.70;99.90
39095;DHT22;24840;47.508;19.376;2023-04-03T04:25:50;5.70;99.90
39095;DHT22;24840;47.508;19.376;2023-04-03T04:28:17;5.70;99.90
39095;DHT22;24840;47.508;19.376;2023-04-03T04:30:43;5.70;99.90
39095;DHT22;24840;47.508;19.376;2023-04-03T04:33:09;5.60;99.90
39095;DHT22;24840;47.508;19.376;2023-04-03T04:35:35;5.60;99.90
39095;DHT22;24840;47.508;19.376;2023-04-03T04:38:01;5.60;99.90
39095;DHT22;24840;47.508;19.376;2023-04-03T04:40:28;5.60;99.90
39095;DHT22;24840;47.508;19.376;2023-04-03T04:42:54;5.60;99.90
39095;DHT22;24840;47.508;19.376;2023-04-03T04:45:20;5.50;99.90
39095;DHT22;24840;47.508;19.376;2023-04-03T04:47:45;5.50;99.90
39095;DHT22;24840;47.508;19.376;2023-04-03T04:50:11;5.50;99.90
39095;DHT22;24840;47.508;19.376;2023-04-03T04:52:38;5.60;99.90
39095;DHT22;24840;47.508;19.376;2023-04-03T04:55:04;5.50;99.90
39095;DHT22;24840;47.508;19.376;2023-04-03T04:57:30;5.50;99.90
39095;DHT22;24840;47.508;19.376;2023-04-03T04:59:56;5.50;99.90
39095;DHT22;24840;47.508;19.376;2023-04-03T05:02:22;5.50;99.90
39095;DHT22;24840;47.508;19.376;2023-04-03T05:04:48;5.40;99.90
39095;DHT22;24840;47.508;19.376;2023-04-03T05:07:15;5.40;99.90
39095;DHT22;24840;47.508;19.376;2023-04-03T05:09:41;5.40;99.90
39095;DHT22;24840;47.508;19.376;2023-04-03T05:12:07;5.40;99.90
39095;DHT22;24840;47.508;19.376;2023-04-03T05:14:33;5.50;99.90
39095;DHT22;24840;47.508;19.376;2023-04-03T05:16:59;5.60;99.90
39095;DHT22;24840;47.508;19.376;2023-04-03T05:19:25;5.60;99.90
39095;DHT22;24840;47.508;19.376;2023-04-03T05:21:50;5.70;99.90
39095;DHT22;24840;47.508;19.376;2023-04-03T05:24:16;5.70;99.90
39095;DHT22;24840;47.508;19.376;2023-04-03T05:26:43;5.70;99.90
39095;DHT22;24840;47.508;19.376;2023-04-03T05:29:09;5.80;99.90
39095;DHT22;24840;47.508;19.376;2023-04-03T05:31:35;5.90;99.90
39095;DHT22;24840;47.508;19.376;2023-04-03T05:34:01;5.80;99.90
39095;DHT22;24840;47.508;19.376;2023-04-03T05:36:27;5.90;99.90
39095;DHT22;24840;47.508;19.376;2023-04-03T05:38:53;5.90;99.90
39095;DHT22;24840;47.508;19.376;2023-04-03T05:41:19;5.90;99.90
39095;DHT22;24840;47.508;19.376;2023-04-03T05:43:46;5.90;99.90
39095;DHT22;24840;47.508;19.376;2023-04-03T05:46:14;5.90;99.90
39095;DHT22;24840;47.508;19.376;2023-04-03T05:48:40;5.90;99.90
39095;DHT22;24840;47.508;19.376;2023-04-03T05:51:07;5.90;99.90
39095;DHT22;24840;47.508;19.376;2023-04-03T05:53:35;5.90;99.90
39095;DHT22;24840;47.508;19.376;2023-04-03T05:56:03;5.90;99.90
39095;DHT22;24840;47.508;19.376;2023-04-03T05:58:29;5.90;99.90
39095;DHT22;24840;47.508;19.376;2023-04-03T06:00:55;6.00;99.90
39095;DHT22;24840;47.508;19.376;2023-04-03T06:03:20;6.10;99.90
39095;DHT22;24840;47.508;19.376;2023-04-03T06:05:46;6.10;99.90
39095;DHT22;24840;47.508;19.376;2023-04-03T06:08:12;6.10;99.90
39095;DHT22;24840;47.508;19.376;2023-04-03T06:10:38;6.10;99.90
39095;DHT22;24840;47.508;19.376;2023-04-03T06:13:04;6.20;99.90
39095;DHT22;24840;47.508;19.376;2023-04-03T06:15:31;6.30;99.90
39095;DHT22;24840;47.508;19.376;2023-04-03T06:17:57;6.60;99.90
39095;DHT22;24840;47.508;19.376;2023-04-03T06:20:22;6.60;99.90
39095;DHT22;24840;47.508;19.376;2023-04-03T06:22:49;6.40;99.90
39095;DHT22;24840;47.508;19.376;2023-04-03T06:25:14;6.40;99.90
39095;DHT22;24840;47.508;19.376;2023-04-03T06:27:42;6.70;99.90
39095;DHT22;24840;47.508;19.376;2023-04-03T06:30:08;7.30;99.90
39095;DHT22;24840;47.508;19.376;2023-04-03T06:32:34;7.20;99.90
39095;DHT22;24840;47.508;19.376;2023-04-03T06:35:00;7.40;99.90
39095;DHT22;24840;47.508;19.376;2023-04-03T06:37:26;7.60;99.90
39095;DHT22;24840;47.508;19.376;2023-04-03T06:39:53;7.50;99.90
39095;DHT22;24840;47.508;19.376;2023-04-03T06:42:20;7.40;99.90
39095;DHT22;24840;47.508;19.376;2023-04-03T06:44:46;7.20;99.90
39095;DHT22;24840;47.508;19.376;2023-04-03T06:47:13;7.20;99.90
39095;DHT22;24840;47.508;19.376;2023-04-03T06:49:39;7.10;99.90
39095;DHT22;24840;47.508;19.376;2023-04-03T06:52:05;7.40;99.90
39095;DHT22;24840;47.508;19.376;2023-04-03T06:54:31;7.60;99.90
39095;DHT22;24840;47.508;19.376;2023-04-03T06:56:57;7.80;99.90
39095;DHT22;24840;47.508;19.376;2023-04-03T06:59:23;7.80;99.90
39095;DHT22;24840;47.508;19.376;2023-04-03T07:01:49;8.10;99.90
39095;DHT22;24840;47.508;19.376;2023-04-03T07:04:15;8.10;99.90
39095;DHT22;24840;47.508;19.376;2023-04-03T07:06:41;8.30;99.90
39095;DHT22;24840;47.508;19.376;2023-04-03T07:09:08;8.10;99.90
39095;DHT22;24840;47.508;19.376;2023-04-03T07:11:35;8.20;99.90
39095;DHT22;24840;47.508;19.376;2023-04-03T07:14:02;8.10;99.90
39095;DHT22;24840;47.508;19.376;2023-04-03T07:16:28;8.30;99.90
39095;DHT22;24840;47.508;19.376;2023-04-03T07:18:56;8.00;99.90
39095;DHT22;24840;47.508;19.376;2023-04-03T07:21:23;8.10;99.90
39095;DHT22;24840;47.508;19.376;2023-04-03T07:23:48;8.30;99.90
39095;DHT22;24840;47.508;19.376;2023-04-03T07:26:14;8.20;99.90
39095;DHT22;24840;47.508;19.376;2023-04-03T07:28:40;8.20;99.90
39095;DHT22;24840;47.508;19.376;2023-04-03T07:31:10;8.30;99.90
39095;DHT22;24840;47.508;19.376;2023-04-03T07:33:39;8.50;99.90
39095;DHT22;24840;47.508;19.376;2023-04-03T07:36:06;8.50;99.90
39095;DHT22;24840;47.508;19.376;2023-04-03T07:38:34;8.50;99.90
39095;DHT22;24840;47.508;19.376;2023-04-03T07:41:00;8.70;99.90
39095;DHT22;24840;47.508;19.376;2023-04-03T07:43:27;8.70;99.90
39095;DHT22;24840;47.508;19.376;2023-04-03T07:45:53;8.80;99.90
39095;DHT22;24840;47.508;19.376;2023-04-03T07:48:24;8.80;99.90
39095;DHT22;24840;47.508;19.376;2023-04-03T07:50:50;8.70;99.90
39095;DHT22;24840;47.508;19.376;2023-04-03T07:53:17;8.70;99.90
39095;DHT22;24840;47.508;19.376;2023-04-03T07:55:45;8.60;99.90
39095;DHT22;24840;47.508;19.376;2023-04-03T07:58:13;8.80;99.90
39095;DHT22;24840;47.508;19.376;2023-04-03T08:00:40;8.80;99.90
39095;DHT22;24840;47.508;19.376;2023-04-03T08:03:07;8.70;99.90
39095;DHT22;24840;47.508;19.376;2023-04-03T08:05:39;8.80;99.90
39095;DHT22;24840;47.508;19.376;2023-04-03T08:08:06;8.90;99.90
39095;DHT22;24840;47.508;19.376;2023-04-03T08:10:32;8.80;99.90
39095;DHT22;24840;47.508;19.376;2023-04-03T08:12:58;8.80;99.90
39095;DHT22;24840;47.508;19.376;2023-04-03T08:15:24;9.00;99.90
39095;DHT22;24840;47.508;19.376;2023-04-03T08:17:50;9.00;99.90
39095;DHT22;24840;47.508;19.376;2023-04-03T08:20:16;9.10;99.90
39095;DHT22;24840;47.508;19.376;2023-04-03T08:22:42;9.20;99.90
39095;DHT22;24840;47.508;19.376;2023-04-03T08:25:09;9.30;99.90
39095;DHT22;24840;47.508;19.376;2023-04-03T08:27:35;9.50;99.90
39095;DHT22;24840;47.508;19.376;2023-04-03T08:30:01;9.60;99.90
39095;DHT22;24840;47.508;19.376;2023-04-03T08:32:26;9.60;99.90
39095;DHT22;24840;47.508;19.376;2023-04-03T08:34:53;9.60;99.90
39095;DHT22;24840;47.508;19.376;2023-04-03T08:37:19;9.70;99.90
39095;DHT22;24840;47.508;19.376;2023-04-03T08:39:45;9.70;97.10
39095;DHT22;24840;47.508;19.376;2023-04-03T08:42:37;9.50;99.90
39095;DHT22;24840;47.508;19.376;2023-04-03T08:45:13;9.70;99.90
39095;DHT22;24840;47.508;19.376;2023-04-03T08:47:56;9.80;99.90
39095;DHT22;24840;47.508;19.376;2023-04-03T08:50:30;10.00;99.90
39095;DHT22;24840;47.508;19.376;2023-04-03T08:52:58;9.70;99.60
39095;DHT22;24840;47.508;19.376;2023-04-03T08:58:09;9.50;97.30
39095;DHT22;24840;47.508;19.376;2023-04-03T09:03:37;10.80;95.40
39095;DHT22;24840;47.508;19.376;2023-04-03T09:06:06;10.50;95.80
39095;DHT22;24840;47.508;19.376;2023-04-03T09:17:09;10.60;94.90
39095;DHT22;24840;47.508;19.376;2023-04-03T09:22:31;11.30;93.60
39095;DHT22;24840;47.508;19.376;2023-04-03T09:25:11;11.00;92.30
39095;DHT22;24840;47.508;19.376;2023-04-03T09:27:38;11.10;93.60
39095;DHT22;24840;47.508;19.376;2023-04-03T09:30:04;11.40;91.90
39095;DHT22;24840;47.508;19.376;2023-04-03T09:32:34;11.40;91.90
39095;DHT22;24840;47.508;19.376;2023-04-03T09:37:41;11.40;89.30
39095;DHT22;24840;47.508;19.376;2023-04-03T09:40:28;11.20;89.40
39095;DHT22;24840;47.508;19.376;2023-04-03T09:42:59;11.20;88.80
39095;DHT22;24840;47.508;19.376;2023-04-03T09:45:33;11.00;86.10
39095;DHT22;24840;47.508;19.376;2023-04-03T09:53:34;10.60;94.70
39095;DHT22;24840;47.508;19.376;2023-04-03T09:56:23;10.30;94.80
39095;DHT22;24840;47.508;19.376;2023-04-03T09:59:06;10.10;94.30
39095;DHT22;24840;47.508;19.376;2023-04-03T10:01:37;10.00;94.00
39095;DHT22;24840;47.508;19.376;2023-04-03T10:06:33;10.10;94.40
39095;DHT22;24840;47.508;19.376;2023-04-03T10:12:09;10.10;94.80
39095;DHT22;24840;47.508;19.376;2023-04-03T10:15:00;10.10;93.80
39095;DHT22;24840;47.508;19.376;2023-04-03T10:23:11;10.10;92.40
39095;DHT22;24840;47.508;19.376;2023-04-03T10:28:45;10.30;93.90
39095;DHT22;24840;47.508;19.376;2023-04-03T10:34:30;10.30;90.50
39095;DHT22;24840;47.508;19.376;2023-04-03T10:37:25;10.10;90.80
39095;DHT22;24840;47.508;19.376;2023-04-03T10:40:22;10.30;92.50
39095;DHT22;24840;47.508;19.376;2023-04-03T10:58:38;10.40;91.80
39095;DHT22;24840;47.508;19.376;2023-04-03T11:01:13;10.60;93.50
39095;DHT22;24840;47.508;19.376;2023-04-03T11:03:47;10.40;91.60
39095;DHT22;24840;47.508;19.376;2023-04-03T11:06:16;10.60;91.80
39095;DHT22;24840;47.508;19.376;2023-04-03T11:09:45;10.70;92.60
39095;DHT22;24840;47.508;19.376;2023-04-03T11:11:55;10.80;92.30
39095;DHT22;24840;47.508;19.376;2023-04-03T11:14:31;10.80;91.30
39095;DHT22;24840;47.508;19.376;2023-04-03T11:22:13;10.30;89.30
39095;DHT22;24840;47.508;19.376;2023-04-03T11:24:43;10.60;92.20
39095;DHT22;24840;47.508;19.376;2023-04-03T11:27:19;10.70;88.40
39095;DHT22;24840;47.508;19.376;2023-04-03T11:29:48;10.70;91.50
39095;DHT22;24840;47.508;19.376;2023-04-03T11:32:41;11.00;91.10
39095;DHT22;24840;47.508;19.376;2023-04-03T11:35:11;10.90;86.00
39095;DHT22;24840;47.508;19.376;2023-04-03T11:37:47;11.20;90.20
39095;DHT22;24840;47.508;19.376;2023-04-03T11:42:49;11.30;84.60
39095;DHT22;24840;47.508;19.376;2023-04-03T11:47:51;11.60;85.60
39095;DHT22;24840;47.508;19.376;2023-04-03T11:52:59;12.00;86.50
39095;DHT22;24840;47.508;19.376;2023-04-03T12:21:15;12.00;89.30
39095;DHT22;24840;47.508;19.376;2023-04-03T12:29:23;11.50;86.80
39095;DHT22;24840;47.508;19.376;2023-04-03T12:40:27;11.20;86.60
39095;DHT22;24840;47.508;19.376;2023-04-03T12:45:48;11.20;83.90
39095;DHT22;24840;47.508;19.376;2023-04-03T12:48:17;11.00;86.00
39095;DHT22;24840;47.508;19.376;2023-04-03T12:50:45;11.10;85.90
39095;DHT22;24840;47.508;19.376;2023-04-03T12:55:43;11.30;89.10
39095;DHT22;24840;47.508;19.376;2023-04-03T12:58:22;11.40;88.10
39095;DHT22;24840;47.508;19.376;2023-04-03T13:03:34;11.20;87.50
39095;DHT22;24840;47.508;19.376;2023-04-03T13:06:04;11.40;84.60
39095;DHT22;24840;47.508;19.376;2023-04-03T13:08:30;11.40;89.50
39095;DHT22;24840;47.508;19.376;2023-04-03T13:11:12;11.60;85.80
39095;DHT22;24840;47.508;19.376;2023-04-03T13:13:38;11.40;85.50
39095;DHT22;24840;47.508;19.376;2023-04-03T13:16:10;11.30;82.30
39095;DHT22;24840;47.508;19.376;2023-04-03T13:18:37;11.10;84.30
39095;DHT22;24840;47.508;19.376;2023-04-03T13:23:30;11.60;83.10
39095;DHT22;24840;47.508;19.376;2023-04-03T13:25:57;11.70;86.40
39095;DHT22;24840;47.508;19.376;2023-04-03T13:28:28;11.70;84.10
39095;DHT22;24840;47.508;19.376;2023-04-03T13:33:28;11.80;84.20
39095;DHT22;24840;47.508;19.376;2023-04-03T13:35:57;11.90;88.20
39095;DHT22;24840;47.508;19.376;2023-04-03T13:38:28;11.70;81.40
39095;DHT22;24840;47.508;19.376;2023-04-03T13:41:01;11.70;80.90
39095;DHT22;24840;47.508;19.376;2023-04-03T13:43:31;12.10;81.50
39095;DHT22;24840;47.508;19.376;2023-04-03T13:48:44;12.10;81.60
39095;DHT22;24840;47.508;19.376;2023-04-03T13:54:00;12.40;85.10
39095;DHT22;24840;47.508;19.376;2023-04-03T13:56:34;12.30;81.30
39095;DHT22;24840;47.508;19.376;2023-04-03T13:59:23;12.40;80.20
39095;DHT22;24840;47.508;19.376;2023-04-03T14:02:13;12.30;82.00
39095;DHT22;24840;47.508;19.376;2023-04-03T14:04:47;12.60;76.90
39095;DHT22;24840;47.508;19.376;2023-04-03T14:07:16;12.50;76.70
39095;DHT22;24840;47.508;19.376;2023-04-03T14:09:43;12.60;77.30
39095;DHT22;24840;47.508;19.376;2023-04-03T14:12:35;12.50;74.20
39095;DHT22;24840;47.508;19.376;2023-04-03T14:15:12;12.60;75.40
39095;DHT22;24840;47.508;19.376;2023-04-03T14:17:41;12.20;74.80
39095;DHT22;24840;47.508;19.376;2023-04-03T14:20:15;12.00;77.90
39095;DHT22;24840;47.508;19.376;2023-04-03T14:22:41;12.20;78.10
39095;DHT22;24840;47.508;19.376;2023-04-03T14:25:07;12.00;70.70
39095;DHT22;24840;47.508;19.376;2023-04-03T14:27:37;11.90;75.80
39095;DHT22;24840;47.508;19.376;2023-04-03T14:30:17;12.00;79.90
39095;DHT22;24840;47.508;19.376;2023-04-03T14:32:43;12.10;81.30
39095;DHT22;24840;47.508;19.376;2023-04-03T14:35:10;12.10;78.20
39095;DHT22;24840;47.508;19.376;2023-04-03T14:37:37;12.00;76.50
39095;DHT22;24840;47.508;19.376;2023-04-03T14:40:04;11.70;73.70
39095;DHT22;24840;47.508;19.376;2023-04-03T14:42:33;11.70;77.50
39095;DHT22;24840;47.508;19.376;2023-04-03T14:45:00;11.70;79.10
39095;DHT22;24840;47.508;19.376;2023-04-03T14:47:28;11.60;75.10
39095;DHT22;24840;47.508;19.376;2023-04-03T14:49:55;11.50;76.10
39095;DHT22;24840;47.508;19.376;2023-04-03T14:52:28;11.60;79.70
39095;DHT22;24840;47.508;19.376;2023-04-03T14:54:55;11.60;79.10
39095;DHT22;24840;47.508;19.376;2023-04-03T14:57:23;11.60;74.30
39095;DHT22;24840;47.508;19.376;2023-04-03T14:59:50;11.50;78.20
39095;DHT22;24840;47.508;19.376;2023-04-03T15:02:36;11.40;81.30
39095;DHT22;24840;47.508;19.376;2023-04-03T15:05:05;11.40;80.30
39095;DHT22;24840;47.508;19.376;2023-04-03T15:07:34;11.30;81.80
39095;DHT22;24840;47.508;19.376;2023-04-03T15:10:14;11.20;79.00
39095;DHT22;24840;47.508;19.376;2023-04-03T15:12:41;11.30;75.80
39095;DHT22;24840;47.508;19.376;2023-04-03T15:15:08;11.10;77.60
39095;DHT22;24840;47.508;19.376;2023-04-03T15:17:34;11.10;76.80
39095;DHT22;24840;47.508;19.376;2023-04-03T15:20:02;11.20;79.00
39095;DHT22;24840;47.508;19.376;2023-04-03T15:22:28;10.90;79.30
39095;DHT22;24840;47.508;19.376;2023-04-03T15:24:54;10.90;79.30
39095;DHT22;24840;47.508;19.376;2023-04-03T15:27:19;10.90;80.10
39095;DHT22;24840;47.508;19.376;2023-04-03T15:29:45;10.90;82.40
39095;DHT22;24840;47.508;19.376;2023-04-03T15:32:12;10.90;79.60
39095;DHT22;24840;47.508;19.376;2023-04-03T15:34:38;10.80;79.60
39095;DHT22;24840;47.508;19.376;2023-04-03T15:37:04;10.60;78.30
39095;DHT22;24840;47.508;19.376;2023-04-03T15:39:31;10.60;80.60
39095;DHT22;24840;47.508;19.376;2023-04-03T15:41:57;10.50;80.30
39095;DHT22;24840;47.508;19.376;2023-04-03T15:44:25;10.50;78.90
39095;DHT22;24840;47.508;19.376;2023-04-03T15:46:51;10.20;79.90
39095;DHT22;24840;47.508;19.376;2023-04-03T15:49:18;10.10;79.40
39095;DHT22;24840;47.508;19.376;2023-04-03T15:51:44;10.00;81.60
39095;DHT22;24840;47.508;19.376;2023-04-03T15:54:10;10.00;81.90
39095;DHT22;24840;47.508;19.376;2023-04-03T15:56:36;10.00;82.60
39095;DHT22;24840;47.508;19.376;2023-04-03T15:59:02;10.00;83.90
39095;DHT22;24840;47.508;19.376;2023-04-03T16:01:29;9.90;83.50
39095;DHT22;24840;47.508;19.376;2023-04-03T16:03:54;9.80;81.10
39095;DHT22;24840;47.508;19.376;2023-04-03T16:06:21;9.80;83.00
39095;DHT22;24840;47.508;19.376;2023-04-03T16:08:47;9.60;83.10
39095;DHT22;24840;47.508;19.376;2023-04-03T16:11:14;9.60;83.40
39095;DHT22;24840;47.508;19.376;2023-04-03T16:13:40;9.60;84.00
39095;DHT22;24840;47.508;19.376;2023-04-03T16:16:07;9.60;84.00
39095;DHT22;24840;47.508;19.376;2023-04-03T16:18:34;9.30;83.60
39095;DHT22;24840;47.508;19.376;2023-04-03T16:21:00;9.30;85.90
39095;DHT22;24840;47.508;19.376;2023-04-03T16:23:26;9.30;82.40
39095;DHT22;24840;47.508;19.376;2023-04-03T16:25:52;9.20;83.70
39095;DHT22;24840;47.508;19.376;2023-04-03T16:28:18;9.20;82.00
39095;DHT22;24840;47.508;19.376;2023-04-03T16:30:45;9.10;84.50
39095;DHT22;24840;47.508;19.376;2023-04-03T16:33:12;8.90;86.00
39095;DHT22;24840;47.508;19.376;2023-04-03T16:35:38;8.90;84.90
39095;DHT22;24840;47.508;19.376;2023-04-03T16:38:04;8.80;82.40
39095;DHT22;24840;47.508;19.376;2023-04-03T16:40:30;8.80;80.70
39095;DHT22;24840;47.508;19.376;2023-04-03T16:42:56;8.70;83.20
39095;DHT22;24840;47.508;19.376;2023-04-03T16:45:22;8.70;85.30
39095;DHT22;24840;47.508;19.376;2023-04-03T16:47:48;8.70;86.40
39095;DHT22;24840;47.508;19.376;2023-04-03T16:50:14;8.50;85.40
39095;DHT22;24840;47.508;19.376;2023-04-03T16:52:40;8.60;86.20
39095;DHT22;24840;47.508;19.376;2023-04-03T16:55:07;8.60;86.30
39095;DHT22;24840;47.508;19.376;2023-04-03T16:57:32;8.50;85.80
39095;DHT22;24840;47.508;19.376;2023-04-03T16:59:58;8.40;86.80
39095;DHT22;24840;47.508;19.376;2023-04-03T17:02:24;8.30;86.70
39095;DHT22;24840;47.508;19.376;2023-04-03T17:04:51;8.20;85.80
39095;DHT22;24840;47.508;19.376;2023-04-03T17:07:19;8.10;84.60
39095;DHT22;24840;47.508;19.376;2023-04-03T17:09:45;8.10;86.40
39095;DHT22;24840;47.508;19.376;2023-04-03T17:12:11;8.10;85.80
39095;DHT22;24840;47.508;19.376;2023-04-03T17:14:37;8.00;87.60
39095;DHT22;24840;47.508;19.376;2023-04-03T17:17:03;7.90;87.40
39095;DHT22;24840;47.508;19.376;2023-04-03T17:19:29;7.90;85.70
39095;DHT22;24840;47.508;19.376;2023-04-03T17:21:56;7.80;83.10
39095;DHT22;24840;47.508;19.376;2023-04-03T17:24:22;7.80;84.40
39095;DHT22;24840;47.508;19.376;2023-04-03T17:26:48;7.70;86.50
39095;DHT22;24840;47.508;19.376;2023-04-03T17:29:13;7.70;86.10
39095;DHT22;24840;47.508;19.376;2023-04-03T17:31:39;7.60;81.80
39095;DHT22;24840;47.508;19.376;2023-04-03T17:34:06;7.50;83.20
39095;DHT22;24840;47.508;19.376;2023-04-03T17:36:34;7.60;82.70
39095;DHT22;24840;47.508;19.376;2023-04-03T17:39:00;7.60;83.20
39095;DHT22;24840;47.508;19.376;2023-04-03T17:41:26;7.50;82.40
39095;DHT22;24840;47.508;19.376;2023-04-03T17:43:52;7.50;82.30
39095;DHT22;24840;47.508;19.376;2023-04-03T17:46:21;7.40;83.50
39095;DHT22;24840;47.508;19.376;2023-04-03T17:48:47;7.30;82.50
39095;DHT22;24840;47.508;19.376;2023-04-03T17:51:15;7.30;83.80
39095;DHT22;24840;47.508;19.376;2023-04-03T17:53:42;7.30;82.80